sensor_id;sensor_type;location;lat;lon;timestamp;P1;durP1;ratioP1;P2;durP2;ratioP2
17696;SDS011;8967;47.984;7.842;2023-12-04T00:01:20;3.43;;;2.03;;
17696;SDS011;8967;47.984;7.842;2023-12-04T00:03:49;3.57;;;2.20;;
17696;SDS011;8967;47.984;7.842;2023-12-04T00:06:16;3.27;;;2.17;;
17696;SDS011;8967;47.984;7.842;2023-12-04T00:08:43;3.73;;;2.23;;
17696;SDS011;8967;47.984;7.842;2023-12-04T00:11:13;6.20;;;2.10;;
17696;SDS011;8967;47.984;7.842;2023-12-04T00:13:42;3.53;;;2.10;;
17696;SDS011;8967;47.984;7.842;2023-12-04T00:16:09;5.37;;;2.10;;
17696;SDS011;8967;47.984;7.842;2023-12-04T00:18:36;4.13;;;2.00;;
17696;SDS011;8967;47.984;7.842;2023-12-04T00:21:05;3.83;;;1.73;;
17696;SDS011;8967;47.984;7.842;2023-12-04T00:23:32;3.53;;;2.20;;
17696;SDS011;8967;47.984;7.842;2023-12-04T00:25:59;4.07;;;2.40;;
17696;SDS011;8967;47.984;7.842;2023-12-04T00:28:28;3.30;;;1.77;;
17696;SDS011;8967;47.984;7.842;2023-12-04T00:30:55;3.53;;;2.37;;
17696;SDS011;8967;47.984;7.842;2023-12-04T00:33:22;2.80;;;2.07;;
17696;SDS011;8967;47.984;7.842;2023-12-04T00:35:49;2.03;;;1.83;;
17696;SDS011;8967;47.984;7.842;2023-12-04T00:38:17;5.33;;;1.90;;
17696;SDS011;8967;47.984;7.842;2023-12-04T00:40:46;3.47;;;1.87;;
17696;SDS011;8967;47.984;7.842;2023-12-04T00:43:14;3.00;;;1.80;;
17696;SDS011;8967;47.984;7.842;2023-12-04T00:45:43;4.13;;;1.90;;
17696;SDS011;8967;47.984;7.842;2023-12-04T00:48:10;2.20;;;1.80;;
17696;SDS011;8967;47.984;7.842;2023-12-04T00:50:37;3.17;;;2.00;;
17696;SDS011;8967;47.984;7.842;2023-12-04T00:53:04;2.00;;;1.53;;
17696;SDS011;8967;47.984;7.842;2023-12-04T00:55:35;2.60;;;1.83;;
17696;SDS011;8967;47.984;7.842;2023-12-04T00:58:02;2.60;;;1.70;;
17696;SDS011;8967;47.984;7.842;2023-12-04T01:00:31;3.10;;;1.80;;
17696;SDS011;8967;47.984;7.842;2023-12-04T01:02:58;2.97;;;2.00;;
17696;SDS011;8967;47.984;7.842;2023-12-04T01:05:28;3.57;;;1.87;;
17696;SDS011;8967;47.984;7.842;2023-12-04T01:07:55;4.23;;;1.83;;
17696;SDS011;8967;47.984;7.842;2023-12-04T01:10:24;4.30;;;1.73;;
17696;SDS011;8967;47.984;7.842;2023-12-04T01:12:53;3.93;;;1.70;;
17696;SDS011;8967;47.984;7.842;2023-12-04T01:15:25;2.83;;;1.80;;
17696;SDS011;8967;47.984;7.842;2023-12-04T01:17:54;2.63;;;1.60;;
17696;SDS011;8967;47.984;7.842;2023-12-04T01:20:21;3.83;;;1.70;;
17696;SDS011;8967;47.984;7.842;2023-12-04T01:22:49;2.63;;;1.53;;
17696;SDS011;8967;47.984;7.842;2023-12-04T01:25:18;2.47;;;1.60;;
17696;SDS011;8967;47.984;7.842;2023-12-04T01:27:45;2.37;;;1.67;;
17696;SDS011;8967;47.984;7.842;2023-12-04T01:30:14;3.53;;;2.27;;
17696;SDS011;8967;47.984;7.842;2023-12-04T01:32:41;3.73;;;1.90;;
17696;SDS011;8967;47.984;7.842;2023-12-04T01:35:10;2.93;;;1.70;;
17696;SDS011;8967;47.984;7.842;2023-12-04T01:37:38;4.07;;;2.13;;
17696;SDS011;8967;47.984;7.842;2023-12-04T01:40:06;2.43;;;1.70;;
17696;SDS011;8967;47.984;7.842;2023-12-04T01:42:36;1.97;;;1.80;;
17696;SDS011;8967;47.984;7.842;2023-12-04T01:45:06;3.50;;;2.13;;
17696;SDS011;8967;47.984;7.842;2023-12-04T01:47:35;3.73;;;1.70;;
17696;SDS011;8967;47.984;7.842;2023-12-04T01:50:03;3.80;;;1.93;;
17696;SDS011;8967;47.984;7.842;2023-12-04T01:52:31;4.47;;;1.90;;
17696;SDS011;8967;47.984;7.842;2023-12-04T01:54:58;8.47;;;2.00;;
17696;SDS011;8967;47.984;7.842;2023-12-04T01:57:25;3.17;;;2.03;;
17696;SDS011;8967;47.984;7.842;2023-12-04T01:59:52;2.60;;;1.70;;
17696;SDS011;8967;47.984;7.842;2023-12-04T02:02:20;2.83;;;2.03;;
17696;SDS011;8967;47.984;7.842;2023-12-04T02:04:48;4.97;;;2.20;;
17696;SDS011;8967;47.984;7.842;2023-12-04T02:07:15;2.70;;;2.00;;
17696;SDS011;8967;47.984;7.842;2023-12-04T02:09:42;4.43;;;1.83;;
17696;SDS011;8967;47.984;7.842;2023-12-04T02:12:09;2.03;;;1.70;;
17696;SDS011;8967;47.984;7.842;2023-12-04T02:14:37;2.73;;;1.67;;
17696;SDS011;8967;47.984;7.842;2023-12-04T02:17:04;3.53;;;1.63;;
17696;SDS011;8967;47.984;7.842;2023-12-04T02:19:35;3.27;;;2.07;;
17696;SDS011;8967;47.984;7.842;2023-12-04T02:22:04;4.97;;;2.17;;
17696;SDS011;8967;47.984;7.842;2023-12-04T02:24:33;4.60;;;2.37;;
17696;SDS011;8967;47.984;7.842;2023-12-04T02:27:03;3.63;;;2.33;;
17696;SDS011;8967;47.984;7.842;2023-12-04T02:29:37;3.30;;;2.40;;
17696;SDS011;8967;47.984;7.842;2023-12-04T02:32:08;6.13;;;2.63;;
17696;SDS011;8967;47.984;7.842;2023-12-04T02:34:41;3.90;;;2.77;;
17696;SDS011;8967;47.984;7.842;2023-12-04T02:37:10;5.37;;;2.63;;
17696;SDS011;8967;47.984;7.842;2023-12-04T02:39:43;5.73;;;2.97;;
17696;SDS011;8967;47.984;7.842;2023-12-04T02:42:13;4.97;;;2.97;;
17696;SDS011;8967;47.984;7.842;2023-12-04T02:44:42;4.90;;;3.37;;
17696;SDS011;8967;47.984;7.842;2023-12-04T02:47:09;5.90;;;3.43;;
17696;SDS011;8967;47.984;7.842;2023-12-04T02:49:36;4.83;;;3.43;;
17696;SDS011;8967;47.984;7.842;2023-12-04T02:52:03;7.93;;;3.40;;
17696;SDS011;8967;47.984;7.842;2023-12-04T02:54:31;5.23;;;3.10;;
17696;SDS011;8967;47.984;7.842;2023-12-04T02:56:59;4.57;;;2.73;;
17696;SDS011;8967;47.984;7.842;2023-12-04T02:59:26;5.60;;;3.37;;
17696;SDS011;8967;47.984;7.842;2023-12-04T03:01:53;6.37;;;3.70;;
17696;SDS011;8967;47.984;7.842;2023-12-04T03:04:20;8.10;;;4.03;;
17696;SDS011;8967;47.984;7.842;2023-12-04T03:06:47;7.97;;;4.40;;
17696;SDS011;8967;47.984;7.842;2023-12-04T03:09:16;9.00;;;4.07;;
17696;SDS011;8967;47.984;7.842;2023-12-04T03:11:43;7.40;;;4.27;;
17696;SDS011;8967;47.984;7.842;2023-12-04T03:14:17;9.53;;;4.93;;
17696;SDS011;8967;47.984;7.842;2023-12-04T03:16:44;9.10;;;3.73;;
17696;SDS011;8967;47.984;7.842;2023-12-04T03:19:11;5.47;;;4.10;;
17696;SDS011;8967;47.984;7.842;2023-12-04T03:21:38;4.80;;;3.40;;
17696;SDS011;8967;47.984;7.842;2023-12-04T03:24:08;7.40;;;3.80;;
17696;SDS011;8967;47.984;7.842;2023-12-04T03:26:35;6.47;;;3.70;;
17696;SDS011;8967;47.984;7.842;2023-12-04T03:29:02;6.00;;;3.17;;
17696;SDS011;8967;47.984;7.842;2023-12-04T03:31:30;7.80;;;4.00;;
17696;SDS011;8967;47.984;7.842;2023-12-04T03:34:01;9.93;;;5.13;;
17696;SDS011;8967;47.984;7.842;2023-12-04T03:36:28;9.00;;;5.57;;
17696;SDS011;8967;47.984;7.842;2023-12-04T03:38:58;16.60;;;6.87;;
17696;SDS011;8967;47.984;7.842;2023-12-04T03:41:27;13.90;;;7.07;;
17696;SDS011;8967;47.984;7.842;2023-12-04T03:43:54;16.30;;;8.20;;
17696;SDS011;8967;47.984;7.842;2023-12-04T03:46:21;16.90;;;7.80;;
17696;SDS011;8967;47.984;7.842;2023-12-04T03:48:49;16.67;;;7.23;;
17696;SDS011;8967;47.984;7.842;2023-12-04T03:51:16;10.17;;;6.30;;
17696;SDS011;8967;47.984;7.842;2023-12-04T03:53:43;9.43;;;5.30;;
17696;SDS011;8967;47.984;7.842;2023-12-04T03:56:10;7.93;;;4.47;;
17696;SDS011;8967;47.984;7.842;2023-12-04T03:58:38;9.23;;;4.90;;
17696;SDS011;8967;47.984;7.842;2023-12-04T04:01:07;9.33;;;4.93;;
17696;SDS011;8967;47.984;7.842;2023-12-04T04:03:34;8.43;;;4.40;;
17696;SDS011;8967;47.984;7.842;2023-12-04T04:06:05;7.33;;;4.10;;
17696;SDS011;8967;47.984;7.842;2023-12-04T04:08:35;6.13;;;3.70;;
17696;SDS011;8967;47.984;7.842;2023-12-04T04:11:02;7.00;;;3.97;;
17696;SDS011;8967;47.984;7.842;2023-12-04T04:13:29;5.73;;;3.60;;
17696;SDS011;8967;47.984;7.842;2023-12-04T04:15:56;7.17;;;3.27;;
17696;SDS011;8967;47.984;7.842;2023-12-04T04:18:23;3.70;;;2.90;;
17696;SDS011;8967;47.984;7.842;2023-12-04T04:20:50;3.80;;;2.37;;
17696;SDS011;8967;47.984;7.842;2023-12-04T04:23:19;3.30;;;2.10;;
17696;SDS011;8967;47.984;7.842;2023-12-04T04:25:46;2.63;;;2.07;;
17696;SDS011;8967;47.984;7.842;2023-12-04T04:28:16;2.40;;;1.80;;
17696;SDS011;8967;47.984;7.842;2023-12-04T04:30:43;3.17;;;1.77;;
17696;SDS011;8967;47.984;7.842;2023-12-04T04:33:10;2.97;;;1.80;;
17696;SDS011;8967;47.984;7.842;2023-12-04T04:35:37;2.43;;;1.77;;
17696;SDS011;8967;47.984;7.842;2023-12-04T04:38:08;1.90;;;1.40;;
17696;SDS011;8967;47.984;7.842;2023-12-04T04:40:37;1.57;;;1.33;;
17696;SDS011;8967;47.984;7.842;2023-12-04T04:43:07;1.50;;;1.40;;
17696;SDS011;8967;47.984;7.842;2023-12-04T04:45:39;1.53;;;1.37;;
17696;SDS011;8967;47.984;7.842;2023-12-04T04:48:06;1.40;;;1.30;;
17696;SDS011;8967;47.984;7.842;2023-12-04T04:50:35;2.50;;;1.20;;
17696;SDS011;8967;47.984;7.842;2023-12-04T04:53:02;2.37;;;1.50;;
17696;SDS011;8967;47.984;7.842;2023-12-04T04:55:32;5.17;;;3.33;;
17696;SDS011;8967;47.984;7.842;2023-12-04T04:58:05;5.80;;;3.10;;
17696;SDS011;8967;47.984;7.842;2023-12-04T05:00:34;7.53;;;3.93;;
17696;SDS011;8967;47.984;7.842;2023-12-04T05:03:01;7.67;;;4.30;;
17696;SDS011;8967;47.984;7.842;2023-12-04T05:05:28;7.60;;;4.03;;
17696;SDS011;8967;47.984;7.842;2023-12-04T05:07:55;8.60;;;4.00;;
17696;SDS011;8967;47.984;7.842;2023-12-04T05:10:22;8.97;;;5.03;;
17696;SDS011;8967;47.984;7.842;2023-12-04T05:12:49;11.40;;;6.47;;
17696;SDS011;8967;47.984;7.842;2023-12-04T05:15:18;10.23;;;5.30;;
17696;SDS011;8967;47.984;7.842;2023-12-04T05:17:45;10.40;;;6.10;;
17696;SDS011;8967;47.984;7.842;2023-12-04T05:20:12;10.67;;;5.90;;
17696;SDS011;8967;47.984;7.842;2023-12-04T05:22:42;15.23;;;6.50;;
17696;SDS011;8967;47.984;7.842;2023-12-04T05:25:11;15.93;;;8.10;;
17696;SDS011;8967;47.984;7.842;2023-12-04T05:27:38;15.07;;;7.20;;
17696;SDS011;8967;47.984;7.842;2023-12-04T05:30:06;14.33;;;8.20;;
17696;SDS011;8967;47.984;7.842;2023-12-04T05:32:38;16.80;;;8.17;;
17696;SDS011;8967;47.984;7.842;2023-12-04T05:35:05;16.80;;;7.93;;
17696;SDS011;8967;47.984;7.842;2023-12-04T05:37:32;14.07;;;7.63;;
17696;SDS011;8967;47.984;7.842;2023-12-04T05:39:59;17.03;;;9.30;;
17696;SDS011;8967;47.984;7.842;2023-12-04T05:42:27;17.03;;;8.40;;
17696;SDS011;8967;47.984;7.842;2023-12-04T05:44:54;17.23;;;8.57;;
17696;SDS011;8967;47.984;7.842;2023-12-04T05:47:22;17.30;;;9.07;;
17696;SDS011;8967;47.984;7.842;2023-12-04T05:49:51;17.13;;;8.27;;
17696;SDS011;8967;47.984;7.842;2023-12-04T05:52:22;16.80;;;8.30;;
17696;SDS011;8967;47.984;7.842;2023-12-04T05:54:51;15.27;;;7.93;;
17696;SDS011;8967;47.984;7.842;2023-12-04T05:57:18;22.80;;;9.93;;
17696;SDS011;8967;47.984;7.842;2023-12-04T05:59:48;16.07;;;8.73;;
17696;SDS011;8967;47.984;7.842;2023-12-04T06:02:15;19.13;;;10.00;;
17696;SDS011;8967;47.984;7.842;2023-12-04T06:04:42;20.17;;;9.90;;
17696;SDS011;8967;47.984;7.842;2023-12-04T06:07:10;18.37;;;9.37;;
17696;SDS011;8967;47.984;7.842;2023-12-04T06:09:37;20.60;;;10.33;;
17696;SDS011;8967;47.984;7.842;2023-12-04T06:12:07;19.03;;;9.47;;
17696;SDS011;8967;47.984;7.842;2023-12-04T06:14:37;23.40;;;10.27;;
17696;SDS011;8967;47.984;7.842;2023-12-04T06:17:04;25.43;;;10.67;;
17696;SDS011;8967;47.984;7.842;2023-12-04T06:19:32;19.70;;;10.40;;
17696;SDS011;8967;47.984;7.842;2023-12-04T06:21:59;21.03;;;11.00;;
17696;SDS011;8967;47.984;7.842;2023-12-04T06:24:27;16.77;;;9.40;;
17696;SDS011;8967;47.984;7.842;2023-12-04T06:26:55;18.30;;;10.33;;
17696;SDS011;8967;47.984;7.842;2023-12-04T06:29:23;20.50;;;10.43;;
17696;SDS011;8967;47.984;7.842;2023-12-04T06:31:53;20.70;;;10.30;;
17696;SDS011;8967;47.984;7.842;2023-12-04T06:34:21;18.07;;;10.10;;
17696;SDS011;8967;47.984;7.842;2023-12-04T06:36:49;22.77;;;11.07;;
17696;SDS011;8967;47.984;7.842;2023-12-04T06:39:16;22.13;;;11.47;;
17696;SDS011;8967;47.984;7.842;2023-12-04T06:41:45;25.43;;;12.83;;
17696;SDS011;8967;47.984;7.842;2023-12-04T06:44:13;26.83;;;11.87;;
17696;SDS011;8967;47.984;7.842;2023-12-04T06:46:41;26.57;;;13.43;;
17696;SDS011;8967;47.984;7.842;2023-12-04T06:49:17;26.07;;;14.10;;
17696;SDS011;8967;47.984;7.842;2023-12-04T06:51:47;25.23;;;12.47;;
17696;SDS011;8967;47.984;7.842;2023-12-04T06:54:16;28.90;;;13.87;;
17696;SDS011;8967;47.984;7.842;2023-12-04T06:56:47;23.13;;;11.63;;
17696;SDS011;8967;47.984;7.842;2023-12-04T06:59:15;24.00;;;12.77;;
17696;SDS011;8967;47.984;7.842;2023-12-04T07:01:42;25.10;;;12.97;;
17696;SDS011;8967;47.984;7.842;2023-12-04T07:04:09;27.50;;;13.10;;
17696;SDS011;8967;47.984;7.842;2023-12-04T07:06:36;24.87;;;12.47;;
17696;SDS011;8967;47.984;7.842;2023-12-04T07:09:03;25.87;;;12.67;;
17696;SDS011;8967;47.984;7.842;2023-12-04T07:11:35;24.80;;;12.37;;
17696;SDS011;8967;47.984;7.842;2023-12-04T07:14:03;27.17;;;13.83;;
17696;SDS011;8967;47.984;7.842;2023-12-04T07:16:38;26.23;;;13.10;;
17696;SDS011;8967;47.984;7.842;2023-12-04T07:19:06;24.73;;;12.97;;
17696;SDS011;8967;47.984;7.842;2023-12-04T07:21:33;23.50;;;10.83;;
17696;SDS011;8967;47.984;7.842;2023-12-04T07:24:00;27.00;;;11.60;;
17696;SDS011;8967;47.984;7.842;2023-12-04T07:26:27;23.43;;;11.93;;
17696;SDS011;8967;47.984;7.842;2023-12-04T07:28:54;24.50;;;11.10;;
17696;SDS011;8967;47.984;7.842;2023-12-04T07:31:23;18.80;;;10.00;;
17696;SDS011;8967;47.984;7.842;2023-12-04T07:34:17;15.37;;;7.83;;
17696;SDS011;8967;47.984;7.842;2023-12-04T07:36:44;15.77;;;8.27;;
17696;SDS011;8967;47.984;7.842;2023-12-04T07:39:11;14.53;;;7.90;;
17696;SDS011;8967;47.984;7.842;2023-12-04T07:41:38;11.90;;;5.37;;
17696;SDS011;8967;47.984;7.842;2023-12-04T07:44:07;9.67;;;5.57;;
17696;SDS011;8967;47.984;7.842;2023-12-04T07:46:38;8.77;;;4.00;;
17696;SDS011;8967;47.984;7.842;2023-12-04T07:49:05;9.07;;;4.60;;
17696;SDS011;8967;47.984;7.842;2023-12-04T07:51:32;6.77;;;3.60;;
17696;SDS011;8967;47.984;7.842;2023-12-04T07:53:59;7.30;;;3.30;;
17696;SDS011;8967;47.984;7.842;2023-12-04T07:56:26;6.73;;;3.73;;
17696;SDS011;8967;47.984;7.842;2023-12-04T07:58:56;14.00;;;6.97;;
17696;SDS011;8967;47.984;7.842;2023-12-04T08:01:23;21.43;;;10.93;;
17696;SDS011;8967;47.984;7.842;2023-12-04T08:03:51;22.43;;;10.97;;
17696;SDS011;8967;47.984;7.842;2023-12-04T08:06:19;29.67;;;12.83;;
17696;SDS011;8967;47.984;7.842;2023-12-04T08:08:46;28.30;;;14.47;;
17696;SDS011;8967;47.984;7.842;2023-12-04T08:11:13;35.73;;;15.97;;
17696;SDS011;8967;47.984;7.842;2023-12-04T08:13:45;26.20;;;13.73;;
17696;SDS011;8967;47.984;7.842;2023-12-04T08:16:31;32.50;;;15.47;;
17696;SDS011;8967;47.984;7.842;2023-12-04T08:19:09;28.13;;;13.13;;
17696;SDS011;8967;47.984;7.842;2023-12-04T08:21:40;26.50;;;12.60;;
17696;SDS011;8967;47.984;7.842;2023-12-04T08:24:07;25.50;;;12.73;;
17696;SDS011;8967;47.984;7.842;2023-12-04T08:26:34;32.37;;;16.17;;
17696;SDS011;8967;47.984;7.842;2023-12-04T08:29:01;43.33;;;19.13;;
17696;SDS011;8967;47.984;7.842;2023-12-04T08:31:37;30.17;;;16.07;;
17696;SDS011;8967;47.984;7.842;2023-12-04T08:34:08;26.13;;;13.57;;
17696;SDS011;8967;47.984;7.842;2023-12-04T08:36:48;27.50;;;14.40;;
17696;SDS011;8967;47.984;7.842;2023-12-04T08:39:19;27.43;;;13.63;;
17696;SDS011;8967;47.984;7.842;2023-12-04T08:41:49;26.30;;;12.87;;
17696;SDS011;8967;47.984;7.842;2023-12-04T08:44:16;25.53;;;13.97;;
17696;SDS011;8967;47.984;7.842;2023-12-04T08:46:44;25.47;;;12.20;;
17696;SDS011;8967;47.984;7.842;2023-12-04T08:49:12;21.27;;;10.53;;
17696;SDS011;8967;47.984;7.842;2023-12-04T08:51:39;21.43;;;11.23;;
17696;SDS011;8967;47.984;7.842;2023-12-04T08:54:06;20.73;;;10.03;;
17696;SDS011;8967;47.984;7.842;2023-12-04T08:56:34;18.60;;;9.97;;
17696;SDS011;8967;47.984;7.842;2023-12-04T08:59:01;18.80;;;9.30;;
17696;SDS011;8967;47.984;7.842;2023-12-04T09:01:28;18.47;;;9.20;;
17696;SDS011;8967;47.984;7.842;2023-12-04T09:03:55;17.73;;;9.37;;
17696;SDS011;8967;47.984;7.842;2023-12-04T09:06:23;15.17;;;8.60;;
17696;SDS011;8967;47.984;7.842;2023-12-04T09:08:53;15.33;;;7.80;;
17696;SDS011;8967;47.984;7.842;2023-12-04T09:11:22;13.47;;;6.93;;
17696;SDS011;8967;47.984;7.842;2023-12-04T09:13:51;11.33;;;6.37;;
17696;SDS011;8967;47.984;7.842;2023-12-04T09:16:18;9.20;;;5.73;;
17696;SDS011;8967;47.984;7.842;2023-12-04T09:18:48;8.97;;;4.73;;
17696;SDS011;8967;47.984;7.842;2023-12-04T09:21:17;7.03;;;3.33;;
17696;SDS011;8967;47.984;7.842;2023-12-04T09:23:46;7.53;;;3.70;;
17696;SDS011;8967;47.984;7.842;2023-12-04T09:26:15;6.27;;;3.83;;
17696;SDS011;8967;47.984;7.842;2023-12-04T09:28:42;9.53;;;5.13;;
17696;SDS011;8967;47.984;7.842;2023-12-04T09:31:09;14.00;;;6.63;;
17696;SDS011;8967;47.984;7.842;2023-12-04T09:33:36;11.53;;;6.87;;
17696;SDS011;8967;47.984;7.842;2023-12-04T09:36:04;17.23;;;9.57;;
17696;SDS011;8967;47.984;7.842;2023-12-04T09:38:34;19.17;;;9.50;;
17696;SDS011;8967;47.984;7.842;2023-12-04T09:41:03;15.93;;;8.63;;
17696;SDS011;8967;47.984;7.842;2023-12-04T09:43:32;19.30;;;10.13;;
17696;SDS011;8967;47.984;7.842;2023-12-04T09:45:59;26.97;;;13.60;;
17696;SDS011;8967;47.984;7.842;2023-12-04T09:48:27;26.27;;;14.10;;
17696;SDS011;8967;47.984;7.842;2023-12-04T09:50:56;29.23;;;14.67;;
17696;SDS011;8967;47.984;7.842;2023-12-04T09:53:24;30.57;;;16.37;;
17696;SDS011;8967;47.984;7.842;2023-12-04T09:55:53;27.73;;;13.90;;
17696;SDS011;8967;47.984;7.842;2023-12-04T09:58:24;26.87;;;13.50;;
17696;SDS011;8967;47.984;7.842;2023-12-04T10:00:54;32.27;;;15.43;;
17696;SDS011;8967;47.984;7.842;2023-12-04T10:03:25;32.70;;;14.33;;
17696;SDS011;8967;47.984;7.842;2023-12-04T10:05:53;28.87;;;14.13;;
17696;SDS011;8967;47.984;7.842;2023-12-04T10:08:21;30.03;;;15.73;;
17696;SDS011;8967;47.984;7.842;2023-12-04T10:10:48;31.47;;;15.13;;
17696;SDS011;8967;47.984;7.842;2023-12-04T10:13:20;26.40;;;13.80;;
17696;SDS011;8967;47.984;7.842;2023-12-04T10:15:48;30.47;;;14.73;;
17696;SDS011;8967;47.984;7.842;2023-12-04T10:18:25;28.80;;;14.07;;
17696;SDS011;8967;47.984;7.842;2023-12-04T10:20:53;22.73;;;12.20;;
17696;SDS011;8967;47.984;7.842;2023-12-04T10:23:20;22.00;;;11.10;;
17696;SDS011;8967;47.984;7.842;2023-12-04T10:25:50;19.00;;;11.00;;
17696;SDS011;8967;47.984;7.842;2023-12-04T10:28:18;20.33;;;10.03;;
17696;SDS011;8967;47.984;7.842;2023-12-04T10:30:45;18.57;;;10.50;;
17696;SDS011;8967;47.984;7.842;2023-12-04T10:33:18;18.27;;;9.63;;
17696;SDS011;8967;47.984;7.842;2023-12-04T10:35:49;18.80;;;9.40;;
17696;SDS011;8967;47.984;7.842;2023-12-04T10:38:29;15.13;;;8.73;;
17696;SDS011;8967;47.984;7.842;2023-12-04T10:40:58;14.77;;;8.37;;
17696;SDS011;8967;47.984;7.842;2023-12-04T10:43:39;19.13;;;8.00;;
17696;SDS011;8967;47.984;7.842;2023-12-04T10:46:13;15.23;;;7.67;;
17696;SDS011;8967;47.984;7.842;2023-12-04T10:48:44;16.43;;;8.57;;
17696;SDS011;8967;47.984;7.842;2023-12-04T10:51:12;18.50;;;9.67;;
17696;SDS011;8967;47.984;7.842;2023-12-04T10:53:39;21.67;;;10.00;;
17696;SDS011;8967;47.984;7.842;2023-12-04T10:56:08;19.10;;;9.73;;
17696;SDS011;8967;47.984;7.842;2023-12-04T10:58:36;16.57;;;9.53;;
17696;SDS011;8967;47.984;7.842;2023-12-04T11:01:06;15.00;;;9.30;;
17696;SDS011;8967;47.984;7.842;2023-12-04T11:03:40;14.47;;;9.20;;
17696;SDS011;8967;47.984;7.842;2023-12-04T11:06:14;25.40;;;13.40;;
17696;SDS011;8967;47.984;7.842;2023-12-04T11:08:44;28.30;;;13.50;;
17696;SDS011;8967;47.984;7.842;2023-12-04T11:11:19;23.63;;;13.43;;
17696;SDS011;8967;47.984;7.842;2023-12-04T11:13:56;25.77;;;12.40;;
17696;SDS011;8967;47.984;7.842;2023-12-04T11:16:27;44.87;;;22.73;;
17696;SDS011;8967;47.984;7.842;2023-12-04T11:19:06;20.37;;;11.83;;
17696;SDS011;8967;47.984;7.842;2023-12-04T11:21:46;10.73;;;5.37;;
17696;SDS011;8967;47.984;7.842;2023-12-04T11:24:16;8.07;;;5.07;;
17696;SDS011;8967;47.984;7.842;2023-12-04T11:26:46;6.30;;;3.37;;
17696;SDS011;8967;47.984;7.842;2023-12-04T11:29:15;7.67;;;4.23;;
17696;SDS011;8967;47.984;7.842;2023-12-04T11:31:44;7.50;;;3.03;;
17696;SDS011;8967;47.984;7.842;2023-12-04T11:34:13;6.73;;;4.03;;
17696;SDS011;8967;47.984;7.842;2023-12-04T11:36:42;11.43;;;6.10;;
17696;SDS011;8967;47.984;7.842;2023-12-04T11:39:11;17.13;;;7.30;;
17696;SDS011;8967;47.984;7.842;2023-12-04T11:41:40;19.13;;;9.80;;
17696;SDS011;8967;47.984;7.842;2023-12-04T11:44:11;18.00;;;8.80;;
17696;SDS011;8967;47.984;7.842;2023-12-04T11:46:54;12.67;;;7.17;;
17696;SDS011;8967;47.984;7.842;2023-12-04T11:49:30;13.30;;;7.87;;
17696;SDS011;8967;47.984;7.842;2023-12-04T11:51:58;13.80;;;8.30;;
17696;SDS011;8967;47.984;7.842;2023-12-04T11:54:27;11.07;;;6.87;;
17696;SDS011;8967;47.984;7.842;2023-12-04T11:56:56;12.03;;;7.67;;
17696;SDS011;8967;47.984;7.842;2023-12-04T11:59:25;10.03;;;6.73;;
17696;SDS011;8967;47.984;7.842;2023-12-04T12:01:55;11.03;;;6.07;;
17696;SDS011;8967;47.984;7.842;2023-12-04T12:04:25;8.77;;;5.70;;
17696;SDS011;8967;47.984;7.842;2023-12-04T12:06:54;7.47;;;5.10;;
17696;SDS011;8967;47.984;7.842;2023-12-04T12:09:24;30.13;;;16.80;;
17696;SDS011;8967;47.984;7.842;2023-12-04T12:11:51;15.83;;;8.40;;
17696;SDS011;8967;47.984;7.842;2023-12-04T12:14:20;11.77;;;7.30;;
17696;SDS011;8967;47.984;7.842;2023-12-04T12:16:47;11.73;;;7.17;;
17696;SDS011;8967;47.984;7.842;2023-12-04T12:19:14;9.43;;;5.70;;
17696;SDS011;8967;47.984;7.842;2023-12-04T12:21:44;7.30;;;5.07;;
17696;SDS011;8967;47.984;7.842;2023-12-04T12:24:14;7.60;;;4.40;;
17696;SDS011;8967;47.984;7.842;2023-12-04T12:26:41;8.47;;;4.83;;
17696;SDS011;8967;47.984;7.842;2023-12-04T12:29:09;14.20;;;8.03;;
17696;SDS011;8967;47.984;7.842;2023-12-04T12:31:36;24.03;;;10.70;;
17696;SDS011;8967;47.984;7.842;2023-12-04T12:34:04;17.80;;;8.63;;
17696;SDS011;8967;47.984;7.842;2023-12-04T12:36:31;18.23;;;8.77;;
17696;SDS011;8967;47.984;7.842;2023-12-04T12:38:59;16.47;;;7.70;;
17696;SDS011;8967;47.984;7.842;2023-12-04T12:41:30;11.63;;;6.83;;
17696;SDS011;8967;47.984;7.842;2023-12-04T12:43:57;15.17;;;9.03;;
17696;SDS011;8967;47.984;7.842;2023-12-04T12:46:27;17.33;;;9.43;;
17696;SDS011;8967;47.984;7.842;2023-12-04T12:48:54;20.03;;;11.43;;
17696;SDS011;8967;47.984;7.842;2023-12-04T12:51:23;16.87;;;9.90;;
17696;SDS011;8967;47.984;7.842;2023-12-04T12:53:50;19.43;;;11.27;;
17696;SDS011;8967;47.984;7.842;2023-12-04T12:56:17;19.17;;;10.57;;
17696;SDS011;8967;47.984;7.842;2023-12-04T12:58:48;21.90;;;12.43;;
17696;SDS011;8967;47.984;7.842;2023-12-04T13:01:18;22.70;;;12.13;;
17696;SDS011;8967;47.984;7.842;2023-12-04T13:03:46;23.23;;;11.90;;
17696;SDS011;8967;47.984;7.842;2023-12-04T13:06:13;20.93;;;11.33;;
17696;SDS011;8967;47.984;7.842;2023-12-04T13:08:40;12.20;;;7.60;;
17696;SDS011;8967;47.984;7.842;2023-12-04T13:11:07;17.20;;;6.83;;
17696;SDS011;8967;47.984;7.842;2023-12-04T13:13:37;14.47;;;6.20;;
17696;SDS011;8967;47.984;7.842;2023-12-04T13:16:06;7.27;;;5.17;;
17696;SDS011;8967;47.984;7.842;2023-12-04T13:18:33;13.47;;;5.97;;
17696;SDS011;8967;47.984;7.842;2023-12-04T13:23:57;6.27;;;4.23;;
17696;SDS011;8967;47.984;7.842;2023-12-04T13:26:24;5.67;;;4.03;;
17696;SDS011;8967;47.984;7.842;2023-12-04T13:28:51;7.73;;;4.87;;
17696;SDS011;8967;47.984;7.842;2023-12-04T13:31:22;4.67;;;3.50;;
17696;SDS011;8967;47.984;7.842;2023-12-04T13:33:49;5.33;;;3.60;;
17696;SDS011;8967;47.984;7.842;2023-12-04T13:36:16;7.57;;;3.60;;
17696;SDS011;8967;47.984;7.842;2023-12-04T13:38:43;5.67;;;2.83;;
17696;SDS011;8967;47.984;7.842;2023-12-04T13:41:10;3.93;;;2.53;;
17696;SDS011;8967;47.984;7.842;2023-12-04T13:44:07;4.57;;;2.83;;
17696;SDS011;8967;47.984;7.842;2023-12-04T13:46:35;3.53;;;2.87;;
17696;SDS011;8967;47.984;7.842;2023-12-04T13:49:04;4.30;;;3.10;;
17696;SDS011;8967;47.984;7.842;2023-12-04T13:51:31;3.03;;;2.60;;
17696;SDS011;8967;47.984;7.842;2023-12-04T13:53:59;4.13;;;2.93;;
17696;SDS011;8967;47.984;7.842;2023-12-04T13:56:34;8.53;;;4.33;;
17696;SDS011;8967;47.984;7.842;2023-12-04T13:59:09;5.77;;;3.53;;
17696;SDS011;8967;47.984;7.842;2023-12-04T14:01:45;4.07;;;2.73;;
17696;SDS011;8967;47.984;7.842;2023-12-04T14:04:15;5.97;;;3.23;;
17696;SDS011;8967;47.984;7.842;2023-12-04T14:06:42;4.90;;;2.73;;
17696;SDS011;8967;47.984;7.842;2023-12-04T14:09:10;8.23;;;3.80;;
17696;SDS011;8967;47.984;7.842;2023-12-04T14:11:39;5.13;;;3.43;;
17696;SDS011;8967;47.984;7.842;2023-12-04T14:14:09;6.40;;;3.30;;
17696;SDS011;8967;47.984;7.842;2023-12-04T14:16:38;9.23;;;3.83;;
17696;SDS011;8967;47.984;7.842;2023-12-04T14:19:07;6.57;;;2.90;;
17696;SDS011;8967;47.984;7.842;2023-12-04T14:21:34;6.37;;;3.63;;
17696;SDS011;8967;47.984;7.842;2023-12-04T14:24:01;7.40;;;3.13;;
17696;SDS011;8967;47.984;7.842;2023-12-04T14:26:28;8.57;;;3.80;;
17696;SDS011;8967;47.984;7.842;2023-12-04T14:29:00;9.80;;;3.70;;
17696;SDS011;8967;47.984;7.842;2023-12-04T14:31:28;7.63;;;4.27;;
17696;SDS011;8967;47.984;7.842;2023-12-04T14:33:56;10.47;;;5.20;;
17696;SDS011;8967;47.984;7.842;2023-12-04T14:36:27;6.60;;;4.03;;
17696;SDS011;8967;47.984;7.842;2023-12-04T14:38:56;7.27;;;4.13;;
17696;SDS011;8967;47.984;7.842;2023-12-04T14:41:23;6.53;;;4.07;;
17696;SDS011;8967;47.984;7.842;2023-12-04T14:43:50;9.80;;;4.10;;
17696;SDS011;8967;47.984;7.842;2023-12-04T14:46:20;7.03;;;4.43;;
17696;SDS011;8967;47.984;7.842;2023-12-04T14:48:47;10.20;;;5.57;;
17696;SDS011;8967;47.984;7.842;2023-12-04T14:51:15;9.73;;;5.17;;
17696;SDS011;8967;47.984;7.842;2023-12-04T14:53:43;11.73;;;6.00;;
17696;SDS011;8967;47.984;7.842;2023-12-04T14:56:23;9.60;;;5.07;;
17696;SDS011;8967;47.984;7.842;2023-12-04T14:59:10;22.60;;;11.57;;
17696;SDS011;8967;47.984;7.842;2023-12-04T15:02:09;17.37;;;8.93;;
17696;SDS011;8967;47.984;7.842;2023-12-04T15:04:54;16.87;;;8.47;;